Time;durP1;ratioP1;P1;durP2;ratioP2;P2;SDS_P1;SDS_P2;PMS_P1;PMS_P2;Temp;Humidity;BMP_temperature;BMP_pressure;BME280_temperature;BME280_humidity;BME280_pressure;Samples;Min_cycle;Max_cycle;Signal;HPM_P1;HPM_P2
2024/04/16 00:01:37;;;;;;;;;;;5.40;99.90;;;4.55;100.00;97144.09;5430076;26;1468;-69
2024/04/16 00:04:04;;;;;;;;;;;5.40;99.90;;;4.44;100.00;97159.78;5428875;26;1483;-69
2024/04/16 00:06:31;;;;;;;;;;;5.50;99.90;;;4.40;100.00;97164.19;5429046;26;1382;-69
2024/04/16 00:08:58;;;;;;;;;;;5.40;99.90;;;4.46;100.00;97176.00;5425888;26;1379;-69
2024/04/16 00:11:25;;;;;;;;;;;5.40;99.90;;;4.43;100.00;97177.84;5439071;26;2276;-69
2024/04/16 00:13:52;;;;;;;;;;;5.40;99.90;;;4.55;100.00;97172.38;5429047;26;2868;-69
2024/04/16 00:16:19;;;;;;;;;;;5.40;99.90;;;4.47;100.00;97174.28;5399824;26;1361;-69
2024/04/16 00:18:46;;;;;;;;;;;5.50;99.90;;;4.52;100.00;97175.03;5430683;26;1550;-69
2024/04/16 00:21:13;;;;;;;;;;;5.40;99.90;;;4.50;100.00;97169.09;5406800;26;1841;-69
2024/04/16 00:23:40;;;;;;;;;;;5.40;99.90;;;4.39;100.00;97156.50;5437848;26;1383;-69
2024/04/16 00:26:07;;;;;;;;;;;5.40;99.90;;;4.37;100.00;97142.84;5434224;26;1448;-69
2024/04/16 00:28:33;;;;;;;;;;;5.40;99.90;;;4.44;100.00;97156.38;5434982;26;2273;-69
2024/04/16 00:31:00;;;;;;;;;;;5.40;99.90;;;4.53;100.00;97144.13;5429896;26;1312;-69
2024/04/16 00:33:27;;;;;;;;;;;5.40;99.90;;;4.46;100.00;97139.19;5435470;26;1482;-70
2024/04/16 00:35:54;;;;;;;;;;;5.40;99.90;;;4.46;100.00;97134.06;5432783;26;1369;-69
2024/04/16 00:38:22;;;;;;;;;;;5.50;99.90;;;4.53;100.00;97135.59;5436939;26;1502;-69
2024/04/16 00:40:49;;;;;;;;;;;5.40;99.90;;;4.56;100.00;97112.38;5433981;26;1846;-69
2024/04/16 00:43:20;;;;;;;;;;;5.50;99.90;;;4.48;100.00;97127.16;5433214;26;3819;-69
2024/04/16 00:45:55;;;;;;;;;;;5.40;99.90;;;4.56;100.00;97120.06;5400369;26;1615;-69
2024/04/16 00:48:26;;;;;;;;;;;5.50;99.90;;;4.61;100.00;97121.66;5432659;26;1352;-69
2024/04/16 00:50:55;;;;;;;;;;;5.40;99.90;;;4.62;100.00;97101.94;5436635;26;1459;-69
2024/04/16 00:53:23;;;;;;;;;;;5.50;99.90;;;4.59;100.00;97105.44;5420213;26;1467;-69
2024/04/16 00:55:51;;;;;;;;;;;5.50;99.90;;;4.68;100.00;97096.63;5433674;26;2360;-69
2024/04/16 00:58:18;;;;;;;;;;;5.60;99.90;;;4.57;100.00;97083.22;5439282;26;1467;-70
2024/04/16 01:00:46;;;;;;;;;;;5.60;99.90;;;4.58;100.00;97090.91;5434616;26;2790;-69
2024/04/16 01:03:13;;;;;;;;;;;5.50;99.90;;;4.55;100.00;97090.13;5430932;26;1437;-69
2024/04/16 01:05:41;;;;;;;;;;;5.50;99.90;;;4.52;100.00;97074.81;5433395;26;1452;-69
2024/04/16 01:08:08;;;;;;;;;;;5.60;99.90;;;4.61;100.00;97090.81;5431704;26;1392;-69
2024/04/16 01:10:39;;;;;;;;;;;5.50;99.90;;;4.58;100.00;97083.19;5439306;26;1410;-69
2024/04/16 01:13:07;;;;;;;;;;;5.40;99.90;;;4.47;100.00;97084.34;5429909;26;1367;-69
2024/04/16 01:15:34;;;;;;;;;;;5.40;99.90;;;4.35;100.00;97081.19;5437128;26;2418;-69
2024/04/16 01:18:03;;;;;;;;;;;5.40;99.90;;;4.38;100.00;97082.88;5432094;26;1402;-69
2024/04/16 01:20:30;;;;;;;;;;;5.30;99.90;;;4.32;100.00;97063.31;5434372;26;1838;-69
2024/04/16 01:22:57;;;;;;;;;;;5.30;99.90;;;4.17;100.00;97053.41;5443202;26;1347;-69
2024/04/16 01:25:24;;;;;;;;;;;5.30;99.90;;;4.24;100.00;97061.81;5431948;26;1372;-69
2024/04/16 01:27:51;;;;;;;;;;;5.10;99.90;;;4.18;100.00;97058.53;5436449;26;3657;-70
2024/04/16 01:30:18;;;;;;;;;;;5.20;99.90;;;4.18;100.00;97066.22;5431695;26;1463;-69
2024/04/16 01:32:45;;;;;;;;;;;5.20;99.90;;;4.21;100.00;97067.88;5434663;26;1454;-69
2024/04/16 01:35:11;;;;;;;;;;;5.20;99.90;;;4.27;100.00;97066.88;5430394;26;1356;-69
2024/04/16 01:37:39;;;;;;;;;;;5.20;99.90;;;4.32;100.00;97072.75;5435026;26;1401;-69
2024/04/16 01:40:07;;;;;;;;;;;5.20;99.90;;;4.25;100.00;97045.53;5435685;26;1829;-69
2024/04/16 01:42:33;;;;;;;;;;;5.20;99.90;;;4.25;100.00;97046.38;5437430;26;2284;-69
2024/04/16 01:45:00;;;;;;;;;;;5.20;99.90;;;4.24;100.00;97036.94;5433016;26;1306;-69
2024/04/16 01:47:27;;;;;;;;;;;5.10;99.90;;;4.13;100.00;97033.84;5429274;26;1373;-69
2024/04/16 01:49:54;;;;;;;;;;;5.10;99.90;;;4.05;100.00;97039.16;5429415;26;1408;-69
2024/04/16 01:52:21;;;;;;;;;;;5.10;99.90;;;4.08;100.00;97049.38;5433532;26;1315;-69
2024/04/16 01:54:48;;;;;;;;;;;5.00;99.90;;;4.11;100.00;97020.19;5430250;26;1555;-69
2024/04/16 01:57:15;;;;;;;;;;;5.00;99.90;;;4.04;100.00;97024.66;5429302;26;2418;-69
2024/04/16 01:59:42;;;;;;;;;;;4.90;99.90;;;4.04;100.00;97037.50;5430498;26;1462;-69
2024/04/16 02:02:09;;;;;;;;;;;4.80;99.90;;;4.00;100.00;97007.63;5432539;26;1873;-69
2024/04/16 02:04:36;;;;;;;;;;;5.00;99.90;;;3.97;100.00;97013.69;5431310;26;1374;-69
2024/04/16 02:07:03;;;;;;;;;;;4.90;99.90;;;3.87;100.00;97006.25;5432579;26;1343;-69
2024/04/16 02:09:33;;;;;;;;;;;4.90;99.90;;;3.80;100.00;97032.97;5422553;26;1680;-69
2024/04/16 02:12:01;;;;;;;;;;;4.80;99.90;;;3.86;100.00;97009.72;5420016;26;1617;-69
2024/04/16 02:14:27;;;;;;;;;;;4.80;99.90;;;3.78;100.00;97000.44;5403009;26;2691;-70
2024/04/16 02:16:56;;;;;;;;;;;4.70;99.90;;;3.85;100.00;97013.13;5429795;26;1364;-69
2024/04/16 02:19:22;;;;;;;;;;;4.70;99.90;;;3.89;100.00;97005.31;5406631;26;1575;-70
2024/04/16 02:21:49;;;;;;;;;;;4.70;99.90;;;3.92;100.00;97001.84;5425309;26;1879;-69
2024/04/16 02:24:16;;;;;;;;;;;4.70;99.90;;;3.96;100.00;97018.84;5429421;26;1375;-69
2024/04/16 02:26:43;;;;;;;;;;;4.70;99.90;;;3.96;100.00;96975.19;5426150;26;2704;-69
2024/04/16 02:29:10;;;;;;;;;;;4.80;99.90;;;3.94;100.00;96982.94;5433677;26;1478;-69
2024/04/16 02:31:36;;;;;;;;;;;4.90;99.90;;;3.94;100.00;96998.34;5429102;26;1486;-69
2024/04/16 02:34:03;;;;;;;;;;;4.90;99.90;;;4.00;100.00;96986.25;5434250;26;1495;-69
2024/04/16 02:36:30;;;;;;;;;;;4.90;99.90;;;4.03;100.00;96993.84;5425312;26;1547;-69
2024/04/16 02:38:57;;;;;;;;;;;4.90;99.90;;;4.01;100.00;96975.91;5434331;26;1355;-70
2024/04/16 02:41:24;;;;;;;;;;;4.80;99.90;;;3.91;100.00;96970.19;5435158;26;2174;-69
2024/04/16 02:43:51;;;;;;;;;;;4.90;99.90;;;3.96;100.00;96991.44;5426965;26;1344;-69
2024/04/16 02:46:18;;;;;;;;;;;4.90;99.90;;;4.00;100.00;96966.53;5428795;26;1458;-69
2024/04/16 02:48:45;;;;;;;;;;;4.90;99.90;;;3.90;100.00;96968.50;5436137;26;1578;-69
2024/04/16 02:51:16;;;;;;;;;;;4.90;99.90;;;4.01;100.00;96963.06;5430758;26;1474;-69
2024/04/16 02:53:43;;;;;;;;;;;4.90;99.90;;;4.02;100.00;96961.38;5432775;26;1534;-69
2024/04/16 02:56:10;;;;;;;;;;;4.90;99.90;;;4.16;100.00;96966.97;5428692;26;3646;-69
2024/04/16 02:58:37;;;;;;;;;;;5.00;99.90;;;4.11;100.00;96943.97;5427340;26;1344;-69
2024/04/16 03:01:08;;;;;;;;;;;5.00;99.90;;;4.04;100.00;96952.75;5426784;26;2838;-69
2024/04/16 03:03:36;;;;;;;;;;;5.00;99.90;;;4.07;100.00;96939.81;5424607;26;1586;-69
2024/04/16 03:06:04;;;;;;;;;;;4.90;99.90;;;3.98;100.00;96942.63;5428239;26;1395;-69
2024/04/16 03:08:31;;;;;;;;;;;5.00;99.90;;;4.00;100.00;96922.06;5429246;26;1364;-69
2024/04/16 03:10:58;;;;;;;;;;;5.00;99.90;;;4.06;100.00;96937.28;5425727;26;1391;-69
2024/04/16 03:13:26;;;;;;;;;;;5.00;99.90;;;4.11;100.00;96931.16;5427638;26;1372;-69
2024/04/16 03:15:53;;;;;;;;;;;5.00;99.90;;;4.03;100.00;96929.66;5423028;26;2615;-69
2024/04/16 03:18:20;;;;;;;;;;;5.00;99.90;;;4.01;100.00;96929.69;5429952;26;1418;-69
2024/04/16 03:20:47;;;;;;;;;;;5.00;99.90;;;4.08;100.00;96949.22;5432260;26;1833;-69
2024/04/16 03:23:14;;;;;;;;;;;5.00;99.90;;;4.06;100.00;96958.69;5433759;26;1892;-69
2024/04/16 03:25:42;;;;;;;;;;;4.90;99.90;;;4.12;100.00;96940.53;5427706;26;1373;-69
2024/04/16 03:28:09;;;;;;;;;;;5.00;99.90;;;4.13;100.00;96946.53;5397967;26;1436;-69
2024/04/16 03:30:36;;;;;;;;;;;5.00;99.90;;;4.15;100.00;96937.88;5427317;26;2150;-69
2024/04/16 03:33:03;;;;;;;;;;;5.00;99.90;;;4.02;100.00;96933.13;5429450;26;1361;-69
2024/04/16 03:35:30;;;;;;;;;;;5.00;99.90;;;3.93;100.00;96932.47;5436076;26;1582;-69
2024/04/16 03:37:57;;;;;;;;;;;5.00;99.90;;;3.92;100.00;96950.47;5423862;26;1326;-69
2024/04/16 03:40:24;;;;;;;;;;;4.90;99.90;;;3.94;100.00;96930.75;5434679;26;1843;-69
2024/04/16 03:42:51;;;;;;;;;;;4.90;99.90;;;3.98;100.00;96946.03;5429308;26;3640;-69
2024/04/16 03:45:18;;;;;;;;;;;5.00;99.90;;;4.02;100.00;96933.97;5431740;26;1586;-70
2024/04/16 03:47:45;;;;;;;;;;;4.90;99.90;;;3.92;100.00;96924.81;5431522;26;1661;-69
2024/04/16 03:50:12;;;;;;;;;;;4.90;99.90;;;3.89;100.00;96941.13;5432344;26;1475;-69
2024/04/16 03:52:39;;;;;;;;;;;4.90;99.90;;;3.89;100.00;96945.44;5425847;26;1471;-69
2024/04/16 03:55:06;;;;;;;;;;;5.00;99.90;;;4.03;100.00;96939.94;5420853;26;1439;-69
2024/04/16 03:57:33;;;;;;;;;;;5.00;99.90;;;4.07;100.00;96952.66;5429556;26;2267;-69
2024/04/16 04:02:46;;;;;;;;;;;5.10;99.90;;;4.14;100.00;96956.72;5427275;26;2004;-70
2024/04/16 04:05:13;;;;;;;;;;;5.00;99.90;;;4.12;100.00;96949.97;5437657;26;1546;-69
2024/04/16 04:07:40;;;;;;;;;;;5.00;99.90;;;4.05;100.00;96946.72;5427472;26;1380;-69
2024/04/16 04:10:07;;;;;;;;;;;5.10;99.90;;;4.21;100.00;96959.16;5424597;26;1423;-69
2024/04/16 04:12:35;;;;;;;;;;;5.10;99.90;;;4.14;100.00;96946.47;5424901;26;2740;-69
2024/04/16 04:15:04;;;;;;;;;;;5.10;99.90;;;4.04;100.00;96950.19;5427913;26;1426;-69
2024/04/16 04:17:31;;;;;;;;;;;5.20;99.90;;;4.15;100.00;96980.69;5427775;26;1491;-69
2024/04/16 04:19:58;;;;;;;;;;;5.10;99.90;;;4.16;100.00;96952.41;5430363;26;1333;-69
2024/04/16 04:22:25;;;;;;;;;;;5.10;99.90;;;4.14;100.00;96954.16;5427782;26;1837;-69
2024/04/16 04:24:52;;;;;;;;;;;5.10;99.90;;;4.26;100.00;96958.13;5437898;26;1464;-69
2024/04/16 04:27:19;;;;;;;;;;;5.00;99.90;;;4.18;100.00;96955.78;5427051;26;3663;-69
2024/04/16 04:30:03;;;;;;;;;;;5.10;99.90;;;4.25;100.00;96959.03;5431558;26;2612;-69
2024/04/16 04:32:30;;;;;;;;;;;5.10;99.90;;;4.21;100.00;96944.56;5434501;26;1415;-69
2024/04/16 04:34:58;;;;;;;;;;;5.10;99.90;;;4.19;100.00;96961.75;5431459;26;1438;-69
2024/04/16 04:37:24;;;;;;;;;;;5.10;99.90;;;4.22;100.00;96960.81;5430098;26;1426;-69
2024/04/16 04:39:52;;;;;;;;;;;5.00;99.90;;;4.31;100.00;96942.59;5430910;26;1340;-69
2024/04/16 04:42:19;;;;;;;;;;;5.10;99.90;;;4.18;100.00;96936.97;5431524;26;2424;-69
2024/04/16 04:44:46;;;;;;;;;;;5.10;99.90;;;4.00;100.00;96930.59;5406206;26;1592;-69
2024/04/16 04:47:13;;;;;;;;;;;5.00;99.90;;;4.16;100.00;96925.88;5427683;26;1350;-69
2024/04/16 04:49:40;;;;;;;;;;;5.10;99.90;;;4.07;100.00;96934.66;5428059;26;1350;-69
2024/04/16 04:52:07;;;;;;;;;;;5.00;99.90;;;3.96;100.00;96934.13;5426242;26;1530;-69
2024/04/16 04:54:34;;;;;;;;;;;5.00;99.90;;;3.93;100.00;96937.59;5427060;26;1399;-69
2024/04/16 04:57:01;;;;;;;;;;;5.00;99.90;;;3.95;100.00;96917.03;5431444;26;1375;-69
2024/04/16 04:59:28;;;;;;;;;;;4.90;99.90;;;3.96;100.00;96903.31;5430428;26;2752;-69
2024/04/16 05:01:55;;;;;;;;;;;4.90;99.90;;;3.90;100.00;96891.50;5432359;26;2694;-69
2024/04/16 05:04:22;;;;;;;;;;;5.00;99.90;;;4.00;100.00;96910.03;5429788;26;1480;-69
2024/04/16 05:06:49;;;;;;;;;;;4.90;99.90;;;4.05;100.00;96912.50;5437455;26;1416;-69
2024/04/16 05:09:16;;;;;;;;;;;5.00;99.90;;;3.99;100.00;96913.47;5433461;26;1444;-69
2024/04/16 05:11:42;;;;;;;;;;;5.10;99.90;;;4.08;100.00;96933.81;5427739;26;1491;-69
2024/04/16 05:14:09;;;;;;;;;;;5.00;99.90;;;4.25;100.00;96922.22;5419544;26;1663;-69
2024/04/16 05:16:36;;;;;;;;;;;5.10;99.90;;;4.09;100.00;96907.22;5427633;26;4269;-69
2024/04/16 05:19:04;;;;;;;;;;;5.10;99.90;;;4.07;100.00;96918.44;5437736;26;1423;-69
2024/04/16 05:21:31;;;;;;;;;;;5.10;99.90;;;4.06;100.00;96929.56;5428041;26;1845;-69
2024/04/16 05:23:58;;;;;;;;;;;5.10;99.90;;;4.00;100.00;96935.72;5424637;26;1362;-69
2024/04/16 05:26:25;;;;;;;;;;;5.00;99.90;;;4.00;100.00;96932.31;5428143;26;1484;-69
2024/04/16 05:28:51;;;;;;;;;;;5.00;99.90;;;3.91;100.00;96939.38;5429762;26;2399;-69
2024/04/16 05:31:19;;;;;;;;;;;4.90;99.90;;;3.97;100.00;96935.81;5438115;26;1423;-69
2024/04/16 05:33:46;;;;;;;;;;;4.90;99.90;;;3.86;100.00;96925.00;5428843;26;1511;-69
2024/04/16 05:36:12;;;;;;;;;;;4.80;99.90;;;3.74;100.00;96937.25;5427283;26;1653;-69
2024/04/16 05:38:39;;;;;;;;;;;4.80;99.90;;;3.73;100.00;96948.38;5431638;26;1456;-69
2024/04/16 05:41:06;;;;;;;;;;;4.80;99.90;;;3.80;100.00;96966.22;5434258;26;1837;-69
2024/04/16 05:43:34;;;;;;;;;;;4.70;99.90;;;3.62;100.00;96957.25;5439941;26;2181;-69
2024/04/16 05:46:01;;;;;;;;;;;4.70;99.90;;;3.51;100.00;96983.16;5430592;26;1431;-69
2024/04/16 05:48:28;;;;;;;;;;;4.60;99.90;;;3.49;100.00;96979.78;5429904;26;1470;-69
2024/04/16 05:50:55;;;;;;;;;;;4.60;99.90;;;3.48;100.00;96971.25;5434076;26;1359;-69
2024/04/16 05:53:22;;;;;;;;;;;4.60;99.90;;;3.46;100.00;97000.41;5429076;26;2078;-69
2024/04/16 05:55:49;;;;;;;;;;;4.50;99.90;;;3.51;100.00;97004.56;5431716;26;2032;-69
2024/04/16 05:58:17;;;;;;;;;;;4.50;99.90;;;3.55;100.00;96995.88;5424254;26;3821;-69
2024/04/16 06:00:44;;;;;;;;;;;4.50;99.90;;;3.57;100.00;96993.28;5432806;26;1448;-69
2024/04/16 06:03:11;;;;;;;;;;;4.50;99.90;;;3.63;100.00;96982.88;5430698;26;1837;-69
2024/04/16 06:05:38;;;;;;;;;;;4.60;99.90;;;3.53;100.00;97015.59;5432773;26;1495;-69
2024/04/16 06:08:05;;;;;;;;;;;4.60;99.90;;;3.49;100.00;97006.31;5431681;26;1324;-69
2024/04/16 06:10:32;;;;;;;;;;;4.50;99.90;;;3.54;100.00;97008.78;5430174;26;1472;-69
2024/04/16 06:12:59;;;;;;;;;;;4.50;99.90;;;3.53;100.00;97009.63;5431856;26;2472;-69
2024/04/16 06:15:26;;;;;;;;;;;4.50;99.90;;;3.59;100.00;97013.78;5440097;26;2876;-69
2024/04/16 06:17:53;;;;;;;;;;;4.60;99.90;;;3.64;100.00;97033.31;5438666;26;1483;-69
2024/04/16 06:20:20;;;;;;;;;;;4.50;99.90;;;3.53;100.00;97015.59;5428691;26;1475;-69
2024/04/16 06:22:47;;;;;;;;;;;4.60;99.90;;;3.51;100.00;97014.81;5435293;26;1837;-69
2024/04/16 06:25:15;;;;;;;;;;;4.60;99.90;;;3.53;100.00;97027.59;5428336;26;1538;-69
2024/04/16 06:27:42;;;;;;;;;;;4.50;99.90;;;3.59;100.00;97044.59;5435103;26;2488;-69
2024/04/16 06:30:09;;;;;;;;;;;4.60;99.90;;;3.68;100.00;97031.53;5429424;26;1459;-69
2024/04/16 06:32:36;;;;;;;;;;;4.70;99.90;;;3.63;100.00;97039.34;5431939;26;1407;-69
2024/04/16 06:35:03;;;;;;;;;;;4.60;99.90;;;3.68;100.00;97050.34;5431257;26;1207;-69
2024/04/16 06:37:31;;;;;;;;;;;4.60;99.90;;;3.50;100.00;97050.75;5419500;26;1401;-69
2024/04/16 06:39:58;;;;;;;;;;;4.60;99.90;;;3.50;100.00;97049.03;5429000;26;1526;-69
2024/04/16 06:42:24;;;;;;;;;;;4.50;99.90;;;3.59;100.00;97044.59;5423463;26;3830;-70
2024/04/16 06:44:51;;;;;;;;;;;4.50;99.90;;;3.61;100.00;97050.53;5423306;26;2008;-69
2024/04/16 06:47:18;;;;;;;;;;;4.50;99.90;;;3.67;100.00;97056.38;5427920;26;1254;-69
2024/04/16 06:49:45;;;;;;;;;;;4.40;99.90;;;3.74;100.00;97049.34;5427686;26;1341;-69
2024/04/16 06:52:12;;;;;;;;;;;4.50;99.90;;;3.70;100.00;97047.75;5430925;26;1636;-69
2024/04/16 06:54:39;;;;;;;;;;;4.60;99.90;;;3.78;100.00;97061.22;5425745;26;1347;-69
2024/04/16 06:57:06;;;;;;;;;;;4.70;99.90;;;3.89;100.00;97031.00;5426831;26;2329;-69
2024/04/16 06:59:33;;;;;;;;;;;4.80;99.90;;;4.03;100.00;97016.97;5423651;26;2737;-69
2024/04/16 07:02:00;;;;;;;;;;;4.80;99.90;;;4.13;100.00;97026.16;5428793;26;1845;-69
2024/04/16 07:04:27;;;;;;;;;;;4.90;99.90;;;4.19;100.00;97029.38;5423163;26;1336;-69
2024/04/16 07:06:54;;;;;;;;;;;4.90;99.90;;;4.10;100.00;97019.34;5427434;26;1281;-69
2024/04/16 07:09:24;;;;;;;;;;;5.00;99.90;;;4.00;100.00;97011.94;5431685;26;1523;-69
2024/04/16 07:11:51;;;;;;;;;;;5.10;99.90;;;4.06;100.00;97022.03;5427320;26;2209;-69
2024/04/16 07:14:18;;;;;;;;;;;5.10;99.90;;;4.01;100.00;97042.69;5424384;26;1562;-69
2024/04/16 07:16:45;;;;;;;;;;;5.00;99.90;;;4.15;100.00;97025.22;5422197;26;1219;-69
2024/04/16 07:19:12;;;;;;;;;;;5.00;99.90;;;4.10;100.00;97031.34;5424994;26;1820;-69
2024/04/16 07:21:39;;;;;;;;;;;4.90;99.90;;;3.99;100.00;97021.34;5427045;26;1856;-69
2024/04/16 07:24:06;;;;;;;;;;;4.90;99.90;;;3.99;100.00;97008.50;5425354;26;3884;-69
2024/04/16 07:26:33;;;;;;;;;;;5.00;99.90;;;3.89;100.00;97028.44;5417653;26;1349;-69
2024/04/16 07:29:03;;;;;;;;;;;4.90;99.90;;;3.86;100.00;96999.44;5418583;26;1356;-69
2024/04/16 07:31:30;;;;;;;;;;;4.80;99.90;;;3.79;100.00;97006.44;5421955;26;1903;-69
2024/04/16 07:34:10;;;;;;;;;;;4.80;99.90;;;3.77;100.00;97014.19;5399975;26;1363;-69
2024/04/16 07:36:38;;;;;;;;;;;4.70;99.90;;;3.77;100.00;97027.00;5425368;26;1559;-69
2024/04/16 07:39:05;;;;;;;;;;;4.70;99.90;;;3.69;100.00;97008.38;5427211;26;2554;-69
2024/04/16 07:41:32;;;;;;;;;;;4.80;99.90;;;3.80;100.00;97017.56;5429053;26;1908;-69
2024/04/16 07:43:58;;;;;;;;;;;4.70;99.90;;;3.73;100.00;96997.16;5424130;26;1314;-69
2024/04/16 07:46:25;;;;;;;;;;;4.80;99.90;;;3.65;100.00;97029.03;5426791;26;1424;-69
2024/04/16 07:48:52;;;;;;;;;;;4.70;99.90;;;3.75;100.00;97010.81;5424754;26;1339;-69
2024/04/16 07:51:21;;;;;;;;;;;4.70;99.90;;;3.72;100.00;97010.06;5424699;26;2190;-69
2024/04/16 07:53:48;;;;;;;;;;;4.70;99.90;;;3.75;100.00;97020.22;5421928;26;2708;-69
2024/04/16 07:56:16;;;;;;;;;;;4.60;99.90;;;3.67;100.00;97017.88;5422280;26;1375;-69
2024/04/16 07:58:45;;;;;;;;;;;4.60;99.90;;;3.63;100.00;97017.97;5431400;26;1517;-69
2024/04/16 08:01:14;;;;;;;;;;;4.60;99.90;;;3.62;100.00;97009.41;5418770;26;1581;-69
2024/04/16 08:03:41;;;;;;;;;;;4.70;99.90;;;3.64;100.00;97028.19;5424630;26;1892;-69
2024/04/16 08:06:10;;;;;;;;;;;4.60;99.90;;;3.63;100.00;97030.81;5424461;26;3733;-69
2024/04/16 08:08:37;;;;;;;;;;;4.60;99.90;;;3.63;100.00;97013.69;5426414;26;1348;-69
2024/04/16 08:11:12;;;;;;;;;;;4.60;99.90;;;3.80;100.00;97023.53;5430322;26;2788;-69
2024/04/16 08:13:40;;;;;;;;;;;4.70;99.90;;;3.86;100.00;97033.66;5420991;26;1426;-69
2024/04/16 08:16:07;;;;;;;;;;;4.80;99.90;;;3.96;100.00;97029.13;5425604;26;1386;-69
2024/04/16 08:18:34;;;;;;;;;;;4.80;99.90;;;4.00;100.00;97029.91;5422542;26;1344;-70
2024/04/16 08:21:01;;;;;;;;;;;4.80;99.90;;;4.07;100.00;97018.59;5425430;26;1253;-69
2024/04/16 08:23:28;;;;;;;;;;;5.00;99.90;;;4.05;100.00;97028.06;5423817;26;1840;-69
2024/04/16 08:26:03;;;;;;;;;;;5.00;99.90;;;4.12;100.00;97032.16;5428650;26;2836;-69
2024/04/16 08:28:35;;;;;;;;;;;5.00;99.90;;;4.21;100.00;97029.34;5425975;26;1398;-69
2024/04/16 08:31:02;;;;;;;;;;;5.10;99.90;;;4.36;100.00;97046.94;5422950;26;1320;-69
2024/04/16 08:33:29;;;;;;;;;;;5.10;99.90;;;4.50;100.00;97000.31;5426517;26;1502;-69
2024/04/16 08:35:57;;;;;;;;;;;5.30;99.90;;;4.64;100.00;97007.63;5427416;26;1378;-69
2024/04/16 08:38:24;;;;;;;;;;;5.50;99.90;;;4.61;100.00;96995.69;5397909;26;1312;-69
2024/04/16 08:40:51;;;;;;;;;;;5.50;99.90;;;4.57;100.00;97034.38;5423069;26;2174;-69
2024/04/16 08:43:19;;;;;;;;;;;5.50;99.90;;;4.73;100.00;97007.38;5430508;26;1850;-69
2024/04/16 08:45:47;;;;;;;;;;;5.60;99.90;;;4.61;100.00;97026.56;5427383;26;1472;-69
2024/04/16 08:48:14;;;;;;;;;;;5.40;99.90;;;4.67;100.00;97016.97;5428215;26;1825;-69
2024/04/16 08:50:43;;;;;;;;;;;5.50;99.90;;;4.81;100.00;97015.72;5394040;26;1588;-69
2024/04/16 08:53:09;;;;;;;;;;;5.50;99.90;;;4.68;100.00;97001.50;5429419;26;1604;-69
2024/04/16 08:55:36;;;;;;;;;;;5.60;99.90;;;4.69;100.00;97003.19;5403554;26;3900;-69
2024/04/16 08:58:03;;;;;;;;;;;5.50;99.90;;;4.67;100.00;97011.84;5398201;26;1520;-69
2024/04/16 09:00:31;;;;;;;;;;;5.60;99.90;;;4.72;100.00;97009.97;5425509;26;1396;-69
2024/04/16 09:02:58;;;;;;;;;;;5.60;99.90;;;4.72;100.00;96992.84;5427559;26;2891;-69
2024/04/16 09:05:25;;;;;;;;;;;5.60;99.90;;;4.78;100.00;96987.50;5430194;26;1378;-69
2024/04/16 09:07:52;;;;;;;;;;;5.70;99.90;;;4.75;100.00;97002.19;5431355;26;1458;-70
2024/04/16 09:10:23;;;;;;;;;;;5.60;99.90;;;4.79;100.00;97038.06;5427964;26;1386;-69
2024/04/16 09:12:50;;;;;;;;;;;5.60;99.90;;;4.75;100.00;97004.75;5423580;26;2229;-69
2024/04/16 09:15:18;;;;;;;;;;;5.60;99.90;;;4.78;100.00;97038.91;5428939;26;1466;-69
2024/04/16 09:17:46;;;;;;;;;;;5.60;99.90;;;4.80;100.00;97042.28;5429846;26;1364;-69
2024/04/16 09:20:18;;;;;;;;;;;5.60;99.90;;;4.82;100.00;97003.69;5424306;26;1366;-69
2024/04/16 09:22:49;;;;;;;;;;;5.60;99.90;;;5.00;100.00;97010.03;5429944;26;1890;-69
2024/04/16 09:25:17;;;;;;;;;;;5.70;99.90;;;5.10;100.00;96996.00;5431662;26;1842;-69
2024/04/16 09:27:54;;;;;;;;;;;5.90;99.90;;;5.13;100.00;96989.91;5425930;26;2580;-69
2024/04/16 09:30:21;;;;;;;;;;;6.00;99.90;;;5.01;100.00;97009.97;5428761;26;1599;-69
2024/04/16 09:33:02;;;;;;;;;;;5.90;99.90;;;5.10;100.00;96992.59;5425095;26;1817;-69
2024/04/16 09:35:37;;;;;;;;;;;6.00;99.90;;;5.20;100.00;96984.56;5428484;26;1609;-69
2024/04/16 09:38:08;;;;;;;;;;;6.00;99.90;;;5.21;100.00;96973.34;5427541;26;1571;-69
2024/04/16 09:40:35;;;;;;;;;;;6.00;99.90;;;5.16;100.00;96974.41;5450602;26;3799;-69
2024/04/16 09:43:04;;;;;;;;;;;6.00;99.90;;;5.05;100.00;96997.03;5428292;26;1841;-69
2024/04/16 09:45:33;;;;;;;;;;;6.00;99.90;;;5.13;100.00;97002.78;5427292;26;1599;-69
2024/04/16 09:48:01;;;;;;;;;;;6.00;99.90;;;5.20;100.00;96994.84;5432843;26;1616;-69
2024/04/16 09:50:29;;;;;;;;;;;5.90;99.90;;;5.30;100.00;96999.72;5428421;26;1602;-69
2024/04/16 09:52:59;;;;;;;;;;;6.10;99.90;;;5.34;100.00;97009.03;5429843;26;1603;-69
2024/04/16 09:55:29;;;;;;;;;;;6.10;99.90;;;5.51;100.00;97017.03;5430830;26;2142;-69
2024/04/16 09:57:57;;;;;;;;;;;6.10;99.90;;;5.51;100.00;97006.75;5452252;26;1895;-69
2024/04/16 10:00:24;;;;;;;;;;;6.30;99.90;;;5.73;100.00;97026.69;5432989;26;1568;-70
2024/04/16 10:02:52;;;;;;;;;;;6.50;99.90;;;5.71;100.00;97000.13;5428160;26;1841;-69
2024/04/16 10:05:19;;;;;;;;;;;6.60;99.90;;;5.70;100.00;96999.25;5428591;26;1704;-69
2024/04/16 10:07:47;;;;;;;;;;;6.60;99.90;;;5.67;100.00;97053.44;5427487;26;1562;-69
2024/04/16 10:10:15;;;;;;;;;;;6.50;99.90;;;5.66;100.00;96984.84;5428532;26;2687;-69
2024/04/16 10:12:42;;;;;;;;;;;6.50;99.90;;;5.61;100.00;96997.84;5400411;26;1624;-69
2024/04/16 10:15:12;;;;;;;;;;;6.50;99.90;;;5.51;100.00;97005.91;5428456;26;1653;-68
2024/04/16 10:17:52;;;;;;;;;;;6.50;99.90;;;5.52;100.00;96993.00;5397866;26;1363;-69
2024/04/16 10:20:23;;;;;;;;;;;6.30;99.90;;;5.42;100.00;96976.97;5428928;26;1418;-69
2024/04/16 10:22:58;;;;;;;;;;;6.30;99.90;;;5.57;100.00;97001.41;5430319;26;1853;-69
2024/04/16 10:25:33;;;;;;;;;;;6.40;99.90;;;5.60;100.00;96997.88;5424204;26;4053;-69
2024/04/16 10:28:04;;;;;;;;;;;6.40;99.90;;;5.57;100.00;97023.75;5423354;26;1375;-69
2024/04/16 10:30:34;;;;;;;;;;;6.30;99.90;;;5.60;100.00;97003.03;5427321;26;1323;-69
2024/04/16 10:33:01;;;;;;;;;;;6.40;99.90;;;5.61;100.00;96999.56;5422943;26;1302;-70
2024/04/16 10:35:31;;;;;;;;;;;6.40;99.90;;;5.72;100.00;96997.47;5427037;26;1427;-69
2024/04/16 10:38:00;;;;;;;;;;;6.40;99.90;;;5.75;100.00;96989.69;5428798;26;1373;-70
2024/04/16 10:40:29;;;;;;;;;;;6.60;99.90;;;5.78;100.00;96978.44;5426713;26;2698;-69
2024/04/16 10:42:57;;;;;;;;;;;6.50;99.90;;;6.07;100.00;96986.06;5429455;26;1841;-69
2024/04/16 10:45:24;;;;;;;;;;;6.70;99.90;;;6.34;100.00;96967.09;5429877;26;1565;-69
2024/04/16 10:47:54;;;;;;;;;;;6.80;99.90;;;6.12;100.00;96991.06;5427947;26;1412;-70
2024/04/16 10:50:21;;;;;;;;;;;6.80;99.90;;;6.41;100.00;96979.72;5425352;26;1872;-70
2024/04/16 10:52:48;;;;;;;;;;;7.00;99.90;;;6.38;100.00;96984.97;5426636;26;2211;-70
2024/04/16 10:55:18;;;;;;;;;;;7.00;99.90;;;6.58;100.00;96973.13;5426534;26;2548;-70
2024/04/16 10:57:45;;;;;;;;;;;7.10;99.90;;;6.58;100.00;96970.53;5426117;26;2759;-70
2024/04/16 11:00:16;;;;;;;;;;;7.20;99.90;;;6.34;100.00;96957.66;5427530;26;1346;-69
2024/04/16 11:02:42;;;;;;;;;;;7.30;99.90;;;6.26;100.00;96968.22;5428907;26;1885;-69
2024/04/16 11:05:09;;;;;;;;;;;7.20;99.90;;;6.34;100.00;96979.97;5425397;26;1379;-69
2024/04/16 11:07:36;;;;;;;;;;;7.10;99.90;;;6.19;100.00;96974.47;5428934;26;2444;-69
2024/04/16 11:10:05;;;;;;;;;;;7.10;99.90;;;6.34;100.00;96975.69;5428204;26;1402;-70
2024/04/16 11:12:33;;;;;;;;;;;7.20;99.90;;;6.44;100.00;96950.41;5426163;26;4071;-69
2024/04/16 11:15:02;;;;;;;;;;;7.20;99.90;;;6.79;100.00;96979.22;5428812;26;1328;-69
2024/04/16 11:17:29;;;;;;;;;;;7.50;99.90;;;6.69;100.00;96943.47;5428923;26;1391;-69
2024/04/16 11:19:57;;;;;;;;;;;7.50;99.90;;;6.72;100.00;96964.88;5430287;26;1433;-70
2024/04/16 11:22:24;;;;;;;;;;;7.60;99.90;;;6.59;100.00;96973.06;5426794;26;1466;-70
2024/04/16 11:24:52;;;;;;;;;;;7.60;99.90;;;6.59;100.00;96959.31;5401426;26;1879;-69
2024/04/16 11:27:22;;;;;;;;;;;7.40;99.90;;;6.43;100.00;96969.34;5428363;26;2247;-70
2024/04/16 11:29:50;;;;;;;;;;;7.30;99.90;;;6.66;100.00;96971.94;5428047;26;1784;-69
2024/04/16 11:32:20;;;;;;;;;;;7.20;99.90;;;6.96;100.00;96974.28;5428412;26;1388;-69
2024/04/16 11:34:48;;;;;;;;;;;7.40;99.90;;;7.19;100.00;96963.09;5431448;26;1379;-69
2024/04/16 11:37:16;;;;;;;;;;;7.70;99.90;;;7.82;100.00;96950.19;5433727;26;1363;-70
2024/04/16 11:39:43;;;;;;;;;;;8.30;99.90;;;7.89;100.00;96935.28;5428648;26;2373;-69